Weather at Narita International Airport

Public forecast

Using degrees Celsius for public forecast. Weather courtesy of forecast.io.

Current aviation weather report (METAR) for Narita International Airport

Retrieved 2021/10/22 05:00 UTC (5 minutes ago):

RJAA 220500Z 35011KT 6000 -RA FEW002 BKN004 BKN020 13/12 Q1014 TEMPO 4000 -RA BR RMK 1ST002 5ST004 7SC020 A2995

Aviation forecast (TAF) for Narita International Airport

Retrieved 2021-10-22 00:30 UTC (5 hours ago):

TAF TAF RJAA 212306Z 2200/2306 02012KT 8000 -RA FEW008 BKN015 TEMPO 2200/2203 4000 -RA BR FEW005 BKN008 TEMPO 2209/2215 3000 RA BR FEW003 BKN005